sensor_id;sensor_type;location;lat;lon;timestamp;P1;durP1;ratioP1;P2;durP2;ratioP2
3647;SDS011;1840;48.892;15.312;2023-02-04T00:00:30;7.47;;;2.23;;
3647;SDS011;1840;48.892;15.312;2023-02-04T00:03:02;6.80;;;1.70;;
3647;SDS011;1840;48.892;15.312;2023-02-04T00:05:32;10.60;;;2.33;;
3647;SDS011;1840;48.892;15.312;2023-02-04T00:08:00;5.10;;;2.23;;
3647;SDS011;1840;48.892;15.312;2023-02-04T00:10:29;8.53;;;2.30;;
3647;SDS011;1840;48.892;15.312;2023-02-04T00:12:57;14.53;;;2.53;;
3647;SDS011;1840;48.892;15.312;2023-02-04T00:15:25;6.17;;;2.17;;
3647;SDS011;1840;48.892;15.312;2023-02-04T00:17:54;12.90;;;2.40;;
3647;SDS011;1840;48.892;15.312;2023-02-04T00:20:22;12.30;;;2.50;;
3647;SDS011;1840;48.892;15.312;2023-02-04T00:22:51;7.47;;;2.10;;
3647;SDS011;1840;48.892;15.312;2023-02-04T00:25:20;14.00;;;2.47;;
3647;SDS011;1840;48.892;15.312;2023-02-04T00:27:48;9.57;;;2.43;;
3647;SDS011;1840;48.892;15.312;2023-02-04T00:30:16;7.37;;;2.30;;
3647;SDS011;1840;48.892;15.312;2023-02-04T00:32:44;10.40;;;2.73;;
3647;SDS011;1840;48.892;15.312;2023-02-04T00:35:12;5.33;;;2.47;;
3647;SDS011;1840;48.892;15.312;2023-02-04T00:37:40;14.40;;;2.70;;
3647;SDS011;1840;48.892;15.312;2023-02-04T00:40:10;9.03;;;2.93;;
3647;SDS011;1840;48.892;15.312;2023-02-04T00:42:38;11.90;;;3.93;;
3647;SDS011;1840;48.892;15.312;2023-02-04T00:45:07;7.07;;;1.70;;
3647;SDS011;1840;48.892;15.312;2023-02-04T00:47:36;13.90;;;2.70;;
3647;SDS011;1840;48.892;15.312;2023-02-04T00:50:04;5.97;;;2.00;;
3647;SDS011;1840;48.892;15.312;2023-02-04T00:52:33;9.50;;;2.00;;
3647;SDS011;1840;48.892;15.312;2023-02-04T00:55:01;10.00;;;2.43;;
3647;SDS011;1840;48.892;15.312;2023-02-04T00:57:30;9.23;;;2.37;;
3647;SDS011;1840;48.892;15.312;2023-02-04T00:59:58;10.03;;;2.07;;
3647;SDS011;1840;48.892;15.312;2023-02-04T01:02:26;6.40;;;2.03;;
3647;SDS011;1840;48.892;15.312;2023-02-04T01:04:54;9.13;;;3.00;;
3647;SDS011;1840;48.892;15.312;2023-02-04T01:07:22;6.87;;;2.40;;
3647;SDS011;1840;48.892;15.312;2023-02-04T01:09:50;12.13;;;2.00;;
3647;SDS011;1840;48.892;15.312;2023-02-04T01:12:18;12.63;;;2.90;;
3647;SDS011;1840;48.892;15.312;2023-02-04T01:14:50;10.97;;;2.60;;
3647;SDS011;1840;48.892;15.312;2023-02-04T01:17:18;6.03;;;2.50;;
3647;SDS011;1840;48.892;15.312;2023-02-04T01:19:46;8.83;;;2.60;;
3647;SDS011;1840;48.892;15.312;2023-02-04T01:22:14;7.57;;;2.43;;
3647;SDS011;1840;48.892;15.312;2023-02-04T01:24:42;8.97;;;3.00;;
3647;SDS011;1840;48.892;15.312;2023-02-04T01:27:10;11.67;;;2.20;;
3647;SDS011;1840;48.892;15.312;2023-02-04T01:29:38;7.00;;;1.80;;
3647;SDS011;1840;48.892;15.312;2023-02-04T01:32:07;8.00;;;2.07;;
3647;SDS011;1840;48.892;15.312;2023-02-04T01:34:35;8.77;;;2.27;;
3647;SDS011;1840;48.892;15.312;2023-02-04T01:37:03;7.83;;;2.40;;
3647;SDS011;1840;48.892;15.312;2023-02-04T01:39:31;8.77;;;2.60;;
3647;SDS011;1840;48.892;15.312;2023-02-04T01:42:00;7.10;;;2.20;;
3647;SDS011;1840;48.892;15.312;2023-02-04T01:44:28;6.53;;;2.23;;
3647;SDS011;1840;48.892;15.312;2023-02-04T01:46:56;6.53;;;1.80;;
3647;SDS011;1840;48.892;15.312;2023-02-04T01:49:26;6.03;;;1.90;;
3647;SDS011;1840;48.892;15.312;2023-02-04T01:51:55;5.10;;;1.50;;
3647;SDS011;1840;48.892;15.312;2023-02-04T01:54:23;7.40;;;1.90;;
3647;SDS011;1840;48.892;15.312;2023-02-04T01:56:52;7.30;;;2.37;;
3647;SDS011;1840;48.892;15.312;2023-02-04T01:59:21;4.87;;;1.70;;
3647;SDS011;1840;48.892;15.312;2023-02-04T02:01:50;10.13;;;1.97;;
3647;SDS011;1840;48.892;15.312;2023-02-04T02:04:19;9.43;;;1.70;;
3647;SDS011;1840;48.892;15.312;2023-02-04T02:06:55;10.80;;;2.37;;
3647;SDS011;1840;48.892;15.312;2023-02-04T02:09:24;4.33;;;1.73;;
3647;SDS011;1840;48.892;15.312;2023-02-04T02:11:53;8.13;;;2.40;;
3647;SDS011;1840;48.892;15.312;2023-02-04T02:14:21;5.20;;;1.83;;
3647;SDS011;1840;48.892;15.312;2023-02-04T02:16:49;8.13;;;2.00;;
3647;SDS011;1840;48.892;15.312;2023-02-04T02:19:19;11.37;;;1.80;;
3647;SDS011;1840;48.892;15.312;2023-02-04T02:21:52;8.50;;;2.30;;
3647;SDS011;1840;48.892;15.312;2023-02-04T02:24:30;5.83;;;1.87;;
3647;SDS011;1840;48.892;15.312;2023-02-04T02:27:00;6.27;;;1.57;;
3647;SDS011;1840;48.892;15.312;2023-02-04T02:29:32;3.20;;;1.30;;
3647;SDS011;1840;48.892;15.312;2023-02-04T02:32:00;11.93;;;2.43;;
3647;SDS011;1840;48.892;15.312;2023-02-04T02:34:29;7.50;;;2.33;;
3647;SDS011;1840;48.892;15.312;2023-02-04T02:36:57;6.73;;;2.23;;
3647;SDS011;1840;48.892;15.312;2023-02-04T02:39:26;5.50;;;1.90;;
3647;SDS011;1840;48.892;15.312;2023-02-04T02:41:56;10.07;;;2.30;;
3647;SDS011;1840;48.892;15.312;2023-02-04T02:44:25;9.50;;;1.83;;
3647;SDS011;1840;48.892;15.312;2023-02-04T02:46:54;5.83;;;1.50;;
3647;SDS011;1840;48.892;15.312;2023-02-04T02:49:22;8.47;;;1.77;;
3647;SDS011;1840;48.892;15.312;2023-02-04T02:51:50;8.30;;;2.13;;
3647;SDS011;1840;48.892;15.312;2023-02-04T02:54:19;6.00;;;1.67;;
3647;SDS011;1840;48.892;15.312;2023-02-04T02:56:49;5.30;;;1.80;;
3647;SDS011;1840;48.892;15.312;2023-02-04T02:59:19;11.03;;;2.50;;
3647;SDS011;1840;48.892;15.312;2023-02-04T03:01:48;6.20;;;1.67;;
3647;SDS011;1840;48.892;15.312;2023-02-04T03:04:17;4.90;;;1.60;;
3647;SDS011;1840;48.892;15.312;2023-02-04T03:06:47;6.97;;;1.93;;
3647;SDS011;1840;48.892;15.312;2023-02-04T03:09:17;6.60;;;2.00;;
3647;SDS011;1840;48.892;15.312;2023-02-04T03:11:45;6.33;;;1.77;;
3647;SDS011;1840;48.892;15.312;2023-02-04T03:14:14;3.83;;;1.67;;
3647;SDS011;1840;48.892;15.312;2023-02-04T03:16:43;9.20;;;2.83;;
3647;SDS011;1840;48.892;15.312;2023-02-04T03:19:13;6.17;;;1.60;;
3647;SDS011;1840;48.892;15.312;2023-02-04T03:21:41;7.07;;;1.80;;
3647;SDS011;1840;48.892;15.312;2023-02-04T03:24:10;6.40;;;1.60;;
3647;SDS011;1840;48.892;15.312;2023-02-04T03:26:38;8.20;;;1.60;;
3647;SDS011;1840;48.892;15.312;2023-02-04T03:29:06;3.83;;;1.20;;
3647;SDS011;1840;48.892;15.312;2023-02-04T03:31:35;3.03;;;1.27;;
3647;SDS011;1840;48.892;15.312;2023-02-04T03:34:05;4.00;;;1.00;;
3647;SDS011;1840;48.892;15.312;2023-02-04T03:36:33;1.90;;;1.20;;
3647;SDS011;1840;48.892;15.312;2023-02-04T03:39:01;3.60;;;1.50;;
3647;SDS011;1840;48.892;15.312;2023-02-04T03:41:30;4.63;;;1.40;;
3647;SDS011;1840;48.892;15.312;2023-02-04T03:43:58;4.47;;;1.20;;
3647;SDS011;1840;48.892;15.312;2023-02-04T03:46:26;1.13;;;1.03;;
3647;SDS011;1840;48.892;15.312;2023-02-04T03:48:54;1.93;;;1.30;;
3647;SDS011;1840;48.892;15.312;2023-02-04T03:51:23;1.60;;;1.00;;
3647;SDS011;1840;48.892;15.312;2023-02-04T03:53:51;1.87;;;1.00;;
3647;SDS011;1840;48.892;15.312;2023-02-04T03:56:19;1.37;;;1.13;;
3647;SDS011;1840;48.892;15.312;2023-02-04T03:58:48;1.27;;;1.10;;
3647;SDS011;1840;48.892;15.312;2023-02-04T04:01:16;1.10;;;1.00;;
3647;SDS011;1840;48.892;15.312;2023-02-04T04:03:44;1.10;;;1.00;;
3647;SDS011;1840;48.892;15.312;2023-02-04T04:06:12;1.37;;;1.20;;
3647;SDS011;1840;48.892;15.312;2023-02-04T04:08:41;1.23;;;1.10;;
3647;SDS011;1840;48.892;15.312;2023-02-04T04:11:09;1.57;;;0.90;;
3647;SDS011;1840;48.892;15.312;2023-02-04T04:13:37;1.10;;;1.00;;
3647;SDS011;1840;48.892;15.312;2023-02-04T04:16:06;4.50;;;1.50;;
3647;SDS011;1840;48.892;15.312;2023-02-04T04:18:34;1.30;;;1.20;;
3647;SDS011;1840;48.892;15.312;2023-02-04T04:21:02;1.40;;;1.20;;
3647;SDS011;1840;48.892;15.312;2023-02-04T04:23:30;1.20;;;1.10;;
3647;SDS011;1840;48.892;15.312;2023-02-04T04:26:00;1.37;;;1.00;;
3647;SDS011;1840;48.892;15.312;2023-02-04T04:28:28;2.57;;;1.30;;
3647;SDS011;1840;48.892;15.312;2023-02-04T04:30:56;2.47;;;1.10;;
3647;SDS011;1840;48.892;15.312;2023-02-04T04:33:24;1.43;;;1.10;;
3647;SDS011;1840;48.892;15.312;2023-02-04T04:35:52;1.50;;;1.10;;
3647;SDS011;1840;48.892;15.312;2023-02-04T04:38:20;1.30;;;1.20;;
3647;SDS011;1840;48.892;15.312;2023-02-04T04:40:48;1.67;;;1.37;;
3647;SDS011;1840;48.892;15.312;2023-02-04T04:43:17;1.70;;;1.37;;
3647;SDS011;1840;48.892;15.312;2023-02-04T04:45:46;3.73;;;1.30;;
3647;SDS011;1840;48.892;15.312;2023-02-04T04:48:14;1.27;;;1.10;;
3647;SDS011;1840;48.892;15.312;2023-02-04T04:50:42;1.90;;;1.30;;
3647;SDS011;1840;48.892;15.312;2023-02-04T04:53:10;1.60;;;1.23;;
3647;SDS011;1840;48.892;15.312;2023-02-04T04:55:38;1.37;;;1.27;;
3647;SDS011;1840;48.892;15.312;2023-02-04T04:58:06;1.13;;;1.03;;
3647;SDS011;1840;48.892;15.312;2023-02-04T05:00:35;2.40;;;1.43;;
3647;SDS011;1840;48.892;15.312;2023-02-04T05:03:03;1.43;;;1.27;;
3647;SDS011;1840;48.892;15.312;2023-02-04T05:05:31;1.40;;;1.20;;
3647;SDS011;1840;48.892;15.312;2023-02-04T05:08:05;3.03;;;1.30;;
3647;SDS011;1840;48.892;15.312;2023-02-04T05:10:36;1.57;;;1.30;;
3647;SDS011;1840;48.892;15.312;2023-02-04T05:13:04;1.53;;;1.30;;
3647;SDS011;1840;48.892;15.312;2023-02-04T05:15:32;2.00;;;1.30;;
3647;SDS011;1840;48.892;15.312;2023-02-04T05:18:01;1.43;;;1.30;;
3647;SDS011;1840;48.892;15.312;2023-02-04T05:20:30;1.33;;;1.20;;
3647;SDS011;1840;48.892;15.312;2023-02-04T05:22:58;1.33;;;1.23;;
3647;SDS011;1840;48.892;15.312;2023-02-04T05:25:29;1.87;;;1.50;;
3647;SDS011;1840;48.892;15.312;2023-02-04T05:27:57;2.50;;;1.40;;
3647;SDS011;1840;48.892;15.312;2023-02-04T05:30:25;1.40;;;1.30;;
3647;SDS011;1840;48.892;15.312;2023-02-04T05:32:53;1.67;;;1.30;;
3647;SDS011;1840;48.892;15.312;2023-02-04T05:35:22;1.90;;;1.70;;
3647;SDS011;1840;48.892;15.312;2023-02-04T05:37:50;1.70;;;1.60;;
3647;SDS011;1840;48.892;15.312;2023-02-04T05:40:18;2.90;;;1.50;;
3647;SDS011;1840;48.892;15.312;2023-02-04T05:42:46;2.17;;;1.97;;
3647;SDS011;1840;48.892;15.312;2023-02-04T05:45:15;1.67;;;1.57;;
3647;SDS011;1840;48.892;15.312;2023-02-04T05:47:44;2.03;;;1.70;;
3647;SDS011;1840;48.892;15.312;2023-02-04T05:50:12;1.70;;;1.47;;
3647;SDS011;1840;48.892;15.312;2023-02-04T05:52:41;2.20;;;1.57;;
3647;SDS011;1840;48.892;15.312;2023-02-04T05:55:09;2.40;;;1.97;;
3647;SDS011;1840;48.892;15.312;2023-02-04T05:57:38;2.40;;;1.73;;
3647;SDS011;1840;48.892;15.312;2023-02-04T06:00:08;3.00;;;2.03;;
3647;SDS011;1840;48.892;15.312;2023-02-04T06:02:38;3.70;;;2.30;;
3647;SDS011;1840;48.892;15.312;2023-02-04T06:05:06;3.07;;;2.20;;
3647;SDS011;1840;48.892;15.312;2023-02-04T06:07:34;3.53;;;1.80;;
3647;SDS011;1840;48.892;15.312;2023-02-04T06:10:04;2.77;;;2.00;;
3647;SDS011;1840;48.892;15.312;2023-02-04T06:12:32;4.87;;;2.90;;
3647;SDS011;1840;48.892;15.312;2023-02-04T06:15:00;2.63;;;2.33;;
3647;SDS011;1840;48.892;15.312;2023-02-04T06:17:28;4.77;;;2.70;;
3647;SDS011;1840;48.892;15.312;2023-02-04T06:19:56;4.03;;;3.03;;
3647;SDS011;1840;48.892;15.312;2023-02-04T06:22:24;2.43;;;2.17;;
3647;SDS011;1840;48.892;15.312;2023-02-04T06:24:52;3.90;;;2.70;;
3647;SDS011;1840;48.892;15.312;2023-02-04T06:27:22;4.37;;;2.50;;
3647;SDS011;1840;48.892;15.312;2023-02-04T06:29:50;3.20;;;2.70;;
3647;SDS011;1840;48.892;15.312;2023-02-04T06:32:19;3.60;;;2.53;;
3647;SDS011;1840;48.892;15.312;2023-02-04T06:34:48;3.70;;;2.43;;
3647;SDS011;1840;48.892;15.312;2023-02-04T06:37:16;2.97;;;2.30;;
3647;SDS011;1840;48.892;15.312;2023-02-04T06:39:44;2.83;;;2.60;;
3647;SDS011;1840;48.892;15.312;2023-02-04T06:42:12;5.27;;;2.63;;
3647;SDS011;1840;48.892;15.312;2023-02-04T06:44:41;4.40;;;2.77;;
3647;SDS011;1840;48.892;15.312;2023-02-04T06:47:09;4.00;;;2.83;;
3647;SDS011;1840;48.892;15.312;2023-02-04T06:49:37;3.70;;;2.57;;
3647;SDS011;1840;48.892;15.312;2023-02-04T06:52:05;3.90;;;2.43;;
3647;SDS011;1840;48.892;15.312;2023-02-04T06:54:33;3.30;;;2.40;;
3647;SDS011;1840;48.892;15.312;2023-02-04T06:57:01;3.10;;;2.37;;
3647;SDS011;1840;48.892;15.312;2023-02-04T06:59:32;2.73;;;2.00;;
3647;SDS011;1840;48.892;15.312;2023-02-04T07:02:01;3.10;;;2.37;;
3647;SDS011;1840;48.892;15.312;2023-02-04T07:04:30;3.10;;;2.17;;
3647;SDS011;1840;48.892;15.312;2023-02-04T07:06:58;3.10;;;2.10;;
3647;SDS011;1840;48.892;15.312;2023-02-04T07:09:26;3.40;;;2.13;;
3647;SDS011;1840;48.892;15.312;2023-02-04T07:11:54;3.60;;;2.17;;
3647;SDS011;1840;48.892;15.312;2023-02-04T07:14:22;3.13;;;2.10;;
3647;SDS011;1840;48.892;15.312;2023-02-04T07:16:50;2.53;;;1.80;;
3647;SDS011;1840;48.892;15.312;2023-02-04T07:19:20;3.30;;;2.00;;
3647;SDS011;1840;48.892;15.312;2023-02-04T07:21:48;3.57;;;1.77;;
3647;SDS011;1840;48.892;15.312;2023-02-04T07:24:19;2.17;;;1.70;;
3647;SDS011;1840;48.892;15.312;2023-02-04T07:26:47;2.10;;;1.50;;
3647;SDS011;1840;48.892;15.312;2023-02-04T07:29:15;1.97;;;1.43;;
3647;SDS011;1840;48.892;15.312;2023-02-04T07:31:51;2.07;;;1.57;;
3647;SDS011;1840;48.892;15.312;2023-02-04T07:34:20;2.00;;;1.63;;
3647;SDS011;1840;48.892;15.312;2023-02-04T07:36:48;2.40;;;1.37;;
3647;SDS011;1840;48.892;15.312;2023-02-04T07:39:19;2.13;;;1.70;;
3647;SDS011;1840;48.892;15.312;2023-02-04T07:41:47;3.37;;;1.63;;
3647;SDS011;1840;48.892;15.312;2023-02-04T07:44:14;1.77;;;1.40;;
3647;SDS011;1840;48.892;15.312;2023-02-04T07:46:42;2.13;;;1.30;;
3647;SDS011;1840;48.892;15.312;2023-02-04T07:49:10;2.13;;;1.50;;
3647;SDS011;1840;48.892;15.312;2023-02-04T07:51:40;2.17;;;1.53;;
3647;SDS011;1840;48.892;15.312;2023-02-04T07:54:08;3.03;;;1.67;;
3647;SDS011;1840;48.892;15.312;2023-02-04T07:56:36;2.77;;;1.40;;
3647;SDS011;1840;48.892;15.312;2023-02-04T07:59:04;1.60;;;1.40;;
3647;SDS011;1840;48.892;15.312;2023-02-04T08:01:32;1.40;;;1.20;;
3647;SDS011;1840;48.892;15.312;2023-02-04T08:04:00;12.03;;;2.40;;
3647;SDS011;1840;48.892;15.312;2023-02-04T08:06:29;2.97;;;1.43;;
3647;SDS011;1840;48.892;15.312;2023-02-04T08:08:58;2.30;;;1.80;;
3647;SDS011;1840;48.892;15.312;2023-02-04T08:11:26;1.67;;;1.47;;
3647;SDS011;1840;48.892;15.312;2023-02-04T08:13:54;1.80;;;1.30;;
3647;SDS011;1840;48.892;15.312;2023-02-04T08:16:22;1.77;;;1.43;;
3647;SDS011;1840;48.892;15.312;2023-02-04T08:18:50;1.80;;;1.47;;
3647;SDS011;1840;48.892;15.312;2023-02-04T08:21:18;1.60;;;1.30;;
3647;SDS011;1840;48.892;15.312;2023-02-04T08:23:46;1.40;;;1.20;;
3647;SDS011;1840;48.892;15.312;2023-02-04T08:26:15;1.40;;;1.10;;
3647;SDS011;1840;48.892;15.312;2023-02-04T08:28:44;3.13;;;1.40;;
3647;SDS011;1840;48.892;15.312;2023-02-04T08:31:13;1.80;;;1.40;;
3647;SDS011;1840;48.892;15.312;2023-02-04T08:33:41;1.53;;;1.23;;
3647;SDS011;1840;48.892;15.312;2023-02-04T08:36:09;1.60;;;1.43;;
3647;SDS011;1840;48.892;15.312;2023-02-04T08:38:37;1.77;;;1.40;;
3647;SDS011;1840;48.892;15.312;2023-02-04T08:41:05;2.77;;;1.50;;
3647;SDS011;1840;48.892;15.312;2023-02-04T08:43:35;2.10;;;1.27;;
3647;SDS011;1840;48.892;15.312;2023-02-04T08:46:03;4.40;;;1.37;;
3647;SDS011;1840;48.892;15.312;2023-02-04T08:48:32;2.43;;;1.57;;
3647;SDS011;1840;48.892;15.312;2023-02-04T08:51:00;1.90;;;1.43;;
3647;SDS011;1840;48.892;15.312;2023-02-04T08:53:28;1.60;;;1.33;;
3647;SDS011;1840;48.892;15.312;2023-02-04T08:55:55;1.57;;;1.30;;
3647;SDS011;1840;48.892;15.312;2023-02-04T08:58:23;1.63;;;1.37;;
3647;SDS011;1840;48.892;15.312;2023-02-04T09:00:53;2.00;;;1.30;;
3647;SDS011;1840;48.892;15.312;2023-02-04T09:03:21;2.40;;;1.37;;
3647;SDS011;1840;48.892;15.312;2023-02-04T09:05:49;1.33;;;1.23;;
3647;SDS011;1840;48.892;15.312;2023-02-04T09:08:16;1.97;;;1.53;;
3647;SDS011;1840;48.892;15.312;2023-02-04T09:10:44;1.83;;;1.47;;
3647;SDS011;1840;48.892;15.312;2023-02-04T09:13:12;2.60;;;1.40;;
3647;SDS011;1840;48.892;15.312;2023-02-04T09:15:40;1.20;;;1.10;;
3647;SDS011;1840;48.892;15.312;2023-02-04T09:18:10;1.90;;;1.20;;
3647;SDS011;1840;48.892;15.312;2023-02-04T09:20:41;3.80;;;1.30;;
3647;SDS011;1840;48.892;15.312;2023-02-04T09:23:10;3.33;;;1.20;;
3647;SDS011;1840;48.892;15.312;2023-02-04T09:25:38;2.03;;;1.20;;
3647;SDS011;1840;48.892;15.312;2023-02-04T09:28:07;3.37;;;1.73;;
3647;SDS011;1840;48.892;15.312;2023-02-04T09:30:37;14.70;;;1.50;;
3647;SDS011;1840;48.892;15.312;2023-02-04T09:33:05;1.40;;;1.30;;
3647;SDS011;1840;48.892;15.312;2023-02-04T09:35:35;1.60;;;1.20;;
3647;SDS011;1840;48.892;15.312;2023-02-04T09:38:04;1.93;;;1.33;;
3647;SDS011;1840;48.892;15.312;2023-02-04T09:40:33;1.50;;;1.20;;
3647;SDS011;1840;48.892;15.312;2023-02-04T09:43:03;2.70;;;1.40;;
3647;SDS011;1840;48.892;15.312;2023-02-04T09:45:33;1.87;;;1.20;;
3647;SDS011;1840;48.892;15.312;2023-02-04T09:48:03;1.97;;;1.37;;
3647;SDS011;1840;48.892;15.312;2023-02-04T09:50:36;4.50;;;1.40;;
3647;SDS011;1840;48.892;15.312;2023-02-04T09:53:05;2.70;;;1.60;;
3647;SDS011;1840;48.892;15.312;2023-02-04T09:55:37;2.67;;;1.20;;
3647;SDS011;1840;48.892;15.312;2023-02-04T09:58:09;1.50;;;1.30;;
3647;SDS011;1840;48.892;15.312;2023-02-04T10:00:41;3.40;;;1.30;;
3647;SDS011;1840;48.892;15.312;2023-02-04T10:03:10;2.30;;;1.30;;
3647;SDS011;1840;48.892;15.312;2023-02-04T10:05:43;2.00;;;1.13;;
3647;SDS011;1840;48.892;15.312;2023-02-04T10:08:13;3.70;;;1.60;;
3647;SDS011;1840;48.892;15.312;2023-02-04T10:10:43;2.00;;;1.20;;
3647;SDS011;1840;48.892;15.312;2023-02-04T10:13:13;1.43;;;1.27;;
3647;SDS011;1840;48.892;15.312;2023-02-04T10:15:44;3.80;;;1.40;;
3647;SDS011;1840;48.892;15.312;2023-02-04T10:18:15;7.43;;;1.57;;
3647;SDS011;1840;48.892;15.312;2023-02-04T10:20:50;2.13;;;1.50;;
3647;SDS011;1840;48.892;15.312;2023-02-04T10:23:19;2.40;;;1.10;;
3647;SDS011;1840;48.892;15.312;2023-02-04T10:25:47;2.27;;;1.40;;
3647;SDS011;1840;48.892;15.312;2023-02-04T10:28:15;2.60;;;1.40;;
3647;SDS011;1840;48.892;15.312;2023-02-04T10:30:43;2.63;;;1.60;;
3647;SDS011;1840;48.892;15.312;2023-02-04T10:33:13;1.60;;;1.30;;
3647;SDS011;1840;48.892;15.312;2023-02-04T10:35:43;1.83;;;1.40;;
3647;SDS011;1840;48.892;15.312;2023-02-04T10:38:14;2.00;;;1.27;;
3647;SDS011;1840;48.892;15.312;2023-02-04T10:40:41;1.67;;;1.37;;
3647;SDS011;1840;48.892;15.312;2023-02-04T10:43:13;3.40;;;1.30;;
3647;SDS011;1840;48.892;15.312;2023-02-04T10:45:43;2.13;;;1.23;;
3647;SDS011;1840;48.892;15.312;2023-02-04T10:48:14;1.77;;;1.23;;
3647;SDS011;1840;48.892;15.312;2023-02-04T10:50:43;2.27;;;1.37;;
3647;SDS011;1840;48.892;15.312;2023-02-04T10:53:18;2.03;;;1.37;;
3647;SDS011;1840;48.892;15.312;2023-02-04T10:56:05;1.60;;;1.20;;
3647;SDS011;1840;48.892;15.312;2023-02-04T10:58:42;2.10;;;1.53;;
3647;SDS011;1840;48.892;15.312;2023-02-04T11:01:10;2.23;;;1.60;;
3647;SDS011;1840;48.892;15.312;2023-02-04T11:03:40;2.73;;;1.13;;
3647;SDS011;1840;48.892;15.312;2023-02-04T11:06:11;7.50;;;1.53;;
3647;SDS011;1840;48.892;15.312;2023-02-04T11:08:43;3.00;;;1.37;;
3647;SDS011;1840;48.892;15.312;2023-02-04T11:11:13;1.30;;;1.10;;
3647;SDS011;1840;48.892;15.312;2023-02-04T11:13:44;2.03;;;1.30;;
3647;SDS011;1840;48.892;15.312;2023-02-04T11:16:26;1.80;;;1.20;;
3647;SDS011;1840;48.892;15.312;2023-02-04T11:18:57;1.87;;;1.10;;
3647;SDS011;1840;48.892;15.312;2023-02-04T11:21:27;4.23;;;1.30;;
3647;SDS011;1840;48.892;15.312;2023-02-04T11:24:21;1.97;;;1.43;;
3647;SDS011;1840;48.892;15.312;2023-02-04T11:26:51;3.03;;;1.47;;
3647;SDS011;1840;48.892;15.312;2023-02-04T11:29:29;3.10;;;1.27;;
3647;SDS011;1840;48.892;15.312;2023-02-04T11:32:03;1.20;;;1.03;;
3647;SDS011;1840;48.892;15.312;2023-02-04T11:37:34;2.17;;;1.20;;
3647;SDS011;1840;48.892;15.312;2023-02-04T11:42:56;1.77;;;1.20;;
3647;SDS011;1840;48.892;15.312;2023-02-04T11:45:29;3.17;;;1.50;;
3647;SDS011;1840;48.892;15.312;2023-02-04T11:48:00;4.20;;;1.20;;
3647;SDS011;1840;48.892;15.312;2023-02-04T11:50:30;2.10;;;1.20;;
3647;SDS011;1840;48.892;15.312;2023-02-04T11:53:00;2.70;;;1.30;;
3647;SDS011;1840;48.892;15.312;2023-02-04T11:55:30;2.43;;;1.10;;
3647;SDS011;1840;48.892;15.312;2023-02-04T11:58:01;6.00;;;1.70;;
3647;SDS011;1840;48.892;15.312;2023-02-04T12:00:31;1.97;;;1.20;;
3647;SDS011;1840;48.892;15.312;2023-02-04T12:03:00;1.60;;;1.10;;
3647;SDS011;1840;48.892;15.312;2023-02-04T12:05:35;2.27;;;1.40;;
3647;SDS011;1840;48.892;15.312;2023-02-04T12:08:10;1.73;;;1.00;;
3647;SDS011;1840;48.892;15.312;2023-02-04T12:10:58;3.40;;;1.30;;
3647;SDS011;1840;48.892;15.312;2023-02-04T12:13:33;3.17;;;1.20;;
3647;SDS011;1840;48.892;15.312;2023-02-04T12:16:12;2.93;;;1.27;;
3647;SDS011;1840;48.892;15.312;2023-02-04T12:18:40;1.30;;;1.10;;
3647;SDS011;1840;48.892;15.312;2023-02-04T12:21:08;2.13;;;1.30;;
3647;SDS011;1840;48.892;15.312;2023-02-04T12:23:36;2.50;;;1.40;;
3647;SDS011;1840;48.892;15.312;2023-02-04T12:26:06;1.70;;;1.20;;
3647;SDS011;1840;48.892;15.312;2023-02-04T12:28:34;2.03;;;1.17;;
3647;SDS011;1840;48.892;15.312;2023-02-04T12:31:02;1.77;;;1.40;;
3647;SDS011;1840;48.892;15.312;2023-02-04T12:33:30;3.57;;;1.67;;
3647;SDS011;1840;48.892;15.312;2023-02-04T12:35:58;4.00;;;1.30;;
3647;SDS011;1840;48.892;15.312;2023-02-04T12:38:26;4.10;;;1.50;;
3647;SDS011;1840;48.892;15.312;2023-02-04T12:40:54;2.03;;;1.13;;
3647;SDS011;1840;48.892;15.312;2023-02-04T12:43:24;2.40;;;1.40;;
3647;SDS011;1840;48.892;15.312;2023-02-04T12:45:53;3.97;;;1.67;;
3647;SDS011;1840;48.892;15.312;2023-02-04T12:48:21;4.87;;;2.40;;
3647;SDS011;1840;48.892;15.312;2023-02-04T12:50:51;2.57;;;1.50;;
3647;SDS011;1840;48.892;15.312;2023-02-04T12:53:19;4.20;;;1.67;;
3647;SDS011;1840;48.892;15.312;2023-02-04T12:55:47;1.80;;;1.50;;
3647;SDS011;1840;48.892;15.312;2023-02-04T12:58:15;3.83;;;1.70;;
3647;SDS011;1840;48.892;15.312;2023-02-04T13:00:44;4.30;;;1.50;;
3647;SDS011;1840;48.892;15.312;2023-02-04T13:03:12;2.33;;;1.83;;
3647;SDS011;1840;48.892;15.312;2023-02-04T13:05:40;2.30;;;1.30;;
3647;SDS011;1840;48.892;15.312;2023-02-04T13:08:08;4.73;;;1.60;;
3647;SDS011;1840;48.892;15.312;2023-02-04T13:10:36;5.20;;;1.63;;
3647;SDS011;1840;48.892;15.312;2023-02-04T13:13:04;2.90;;;1.67;;
3647;SDS011;1840;48.892;15.312;2023-02-04T13:15:32;2.93;;;1.50;;
3647;SDS011;1840;48.892;15.312;2023-02-04T13:18:01;11.17;;;1.20;;
3647;SDS011;1840;48.892;15.312;2023-02-04T13:20:29;2.10;;;1.40;;
3647;SDS011;1840;48.892;15.312;2023-02-04T13:22:57;2.63;;;1.60;;
3647;SDS011;1840;48.892;15.312;2023-02-04T13:25:25;1.60;;;1.20;;
3647;SDS011;1840;48.892;15.312;2023-02-04T13:27:53;3.10;;;1.40;;
3647;SDS011;1840;48.892;15.312;2023-02-04T13:30:21;5.63;;;1.80;;
3647;SDS011;1840;48.892;15.312;2023-02-04T13:32:49;4.67;;;1.97;;
3647;SDS011;1840;48.892;15.312;2023-02-04T13:35:18;3.13;;;1.70;;
3647;SDS011;1840;48.892;15.312;2023-02-04T13:37:47;2.90;;;1.60;;
3647;SDS011;1840;48.892;15.312;2023-02-04T13:40:15;3.73;;;1.50;;
3647;SDS011;1840;48.892;15.312;2023-02-04T13:42:43;3.53;;;1.50;;
3647;SDS011;1840;48.892;15.312;2023-02-04T13:45:11;5.50;;;1.80;;
3647;SDS011;1840;48.892;15.312;2023-02-04T13:47:41;4.53;;;1.53;;
3647;SDS011;1840;48.892;15.312;2023-02-04T13:50:09;2.10;;;1.50;;
3647;SDS011;1840;48.892;15.312;2023-02-04T13:52:38;5.10;;;1.80;;
3647;SDS011;1840;48.892;15.312;2023-02-04T13:55:06;3.23;;;1.43;;
3647;SDS011;1840;48.892;15.312;2023-02-04T13:57:34;4.70;;;1.60;;
3647;SDS011;1840;48.892;15.312;2023-02-04T14:00:03;3.13;;;1.70;;
3647;SDS011;1840;48.892;15.312;2023-02-04T14:02:32;3.10;;;1.50;;
3647;SDS011;1840;48.892;15.312;2023-02-04T14:05:00;3.23;;;1.40;;
3647;SDS011;1840;48.892;15.312;2023-02-04T14:07:28;1.87;;;1.40;;
3647;SDS011;1840;48.892;15.312;2023-02-04T14:09:59;1.50;;;1.17;;
3647;SDS011;1840;48.892;15.312;2023-02-04T14:12:27;2.70;;;1.30;;
3647;SDS011;1840;48.892;15.312;2023-02-04T14:14:55;1.77;;;1.27;;
3647;SDS011;1840;48.892;15.312;2023-02-04T14:17:23;2.43;;;1.40;;
3647;SDS011;1840;48.892;15.312;2023-02-04T14:19:51;2.50;;;1.20;;
3647;SDS011;1840;48.892;15.312;2023-02-04T14:22:19;2.90;;;1.53;;
3647;SDS011;1840;48.892;15.312;2023-02-04T14:24:47;1.80;;;1.20;;
3647;SDS011;1840;48.892;15.312;2023-02-04T14:27:16;1.83;;;1.00;;
3647;SDS011;1840;48.892;15.312;2023-02-04T14:29:44;3.00;;;1.10;;
3647;SDS011;1840;48.892;15.312;2023-02-04T14:32:12;2.33;;;1.37;;
3647;SDS011;1840;48.892;15.312;2023-02-04T14:34:40;1.60;;;1.10;;
3647;SDS011;1840;48.892;15.312;2023-02-04T14:37:08;1.93;;;1.13;;
3647;SDS011;1840;48.892;15.312;2023-02-04T14:39:36;2.47;;;1.13;;
3647;SDS011;1840;48.892;15.312;2023-02-04T14:42:04;1.43;;;1.20;;
3647;SDS011;1840;48.892;15.312;2023-02-04T14:44:34;2.00;;;1.07;;
3647;SDS011;1840;48.892;15.312;2023-02-04T14:47:02;3.70;;;1.60;;
3647;SDS011;1840;48.892;15.312;2023-02-04T14:49:30;3.50;;;1.20;;
3647;SDS011;1840;48.892;15.312;2023-02-04T14:51:58;5.10;;;1.50;;
3647;SDS011;1840;48.892;15.312;2023-02-04T14:54:26;1.20;;;1.10;;
3647;SDS011;1840;48.892;15.312;2023-02-04T14:56:54;4.60;;;1.20;;
3647;SDS011;1840;48.892;15.312;2023-02-04T14:59:22;3.63;;;1.50;;
3647;SDS011;1840;48.892;15.312;2023-02-04T15:01:51;3.70;;;1.17;;
3647;SDS011;1840;48.892;15.312;2023-02-04T15:04:19;2.67;;;1.10;;
3647;SDS011;1840;48.892;15.312;2023-02-04T15:06:47;2.77;;;1.37;;
3647;SDS011;1840;48.892;15.312;2023-02-04T15:09:20;1.97;;;1.30;;
3647;SDS011;1840;48.892;15.312;2023-02-04T15:11:48;2.00;;;1.20;;
3647;SDS011;1840;48.892;15.312;2023-02-04T15:14:17;6.30;;;1.43;;
3647;SDS011;1840;48.892;15.312;2023-02-04T15:16:45;3.83;;;1.40;;